sensor_id;sensor_type;location;lat;lon;timestamp;pressure;altitude;pressure_sealevel;temperature;humidity
25722;BME280;13578;53.450;15.496;2022-08-01T00:01:31;99488.16;;;17.31;100.00
25722;BME280;13578;53.450;15.496;2022-08-01T00:04:31;99486.06;;;17.33;100.00
25722;BME280;13578;53.450;15.496;2022-08-01T00:07:33;99482.31;;;17.41;100.00
25722;BME280;13578;53.450;15.496;2022-08-01T00:10:33;99481.84;;;17.52;100.00
25722;BME280;13578;53.450;15.496;2022-08-01T00:13:34;99473.22;;;17.62;100.00
25722;BME280;13578;53.450;15.496;2022-08-01T00:16:36;99472.06;;;17.56;100.00
25722;BME280;13578;53.450;15.496;2022-08-01T00:19:36;99476.56;;;17.57;100.00
25722;BME280;13578;53.450;15.496;2022-08-01T00:22:37;99473.34;;;17.39;100.00
25722;BME280;13578;53.450;15.496;2022-08-01T00:25:38;99478.31;;;17.58;100.00
25722;BME280;13578;53.450;15.496;2022-08-01T00:28:39;99480.56;;;17.70;100.00
25722;BME280;13578;53.450;15.496;2022-08-01T00:31:40;99462.13;;;17.62;100.00
25722;BME280;13578;53.450;15.496;2022-08-01T00:34:41;99468.06;;;17.59;100.00
25722;BME280;13578;53.450;15.496;2022-08-01T00:37:41;99464.16;;;17.53;100.00
25722;BME280;13578;53.450;15.496;2022-08-01T00:40:42;99465.47;;;17.57;100.00
25722;BME280;13578;53.450;15.496;2022-08-01T00:43:43;99459.66;;;17.52;100.00
25722;BME280;13578;53.450;15.496;2022-08-01T00:46:43;99473.31;;;17.54;100.00
25722;BME280;13578;53.450;15.496;2022-08-01T00:49:44;99464.34;;;17.67;100.00
25722;BME280;13578;53.450;15.496;2022-08-01T00:52:45;99464.59;;;17.72;100.00
25722;BME280;13578;53.450;15.496;2022-08-01T00:55:46;99459.94;;;17.72;100.00
25722;BME280;13578;53.450;15.496;2022-08-01T00:58:48;99463.44;;;17.66;100.00
25722;BME280;13578;53.450;15.496;2022-08-01T01:01:49;99462.97;;;17.62;100.00
25722;BME280;13578;53.450;15.496;2022-08-01T01:04:50;99467.97;;;17.67;100.00
25722;BME280;13578;53.450;15.496;2022-08-01T01:08:05;99469.00;;;17.81;100.00
25722;BME280;13578;53.450;15.496;2022-08-01T01:11:13;99463.72;;;17.86;100.00
25722;BME280;13578;53.450;15.496;2022-08-01T01:28:05;99462.09;;;17.77;100.00
25722;BME280;13578;53.450;15.496;2022-08-01T01:31:11;99462.97;;;17.77;100.00
25722;BME280;13578;53.450;15.496;2022-08-01T01:34:16;99456.06;;;17.73;100.00
25722;BME280;13578;53.450;15.496;2022-08-01T01:37:19;99460.00;;;17.79;100.00
25722;BME280;13578;53.450;15.496;2022-08-01T01:40:21;99454.94;;;17.83;100.00
25722;BME280;13578;53.450;15.496;2022-08-01T01:43:23;99449.94;;;17.78;100.00
25722;BME280;13578;53.450;15.496;2022-08-01T01:46:25;99457.91;;;17.81;100.00
25722;BME280;13578;53.450;15.496;2022-08-01T01:49:28;99443.38;;;17.64;100.00
25722;BME280;13578;53.450;15.496;2022-08-01T01:52:31;99454.84;;;17.61;100.00
25722;BME280;13578;53.450;15.496;2022-08-01T01:55:32;99448.06;;;17.63;100.00
25722;BME280;13578;53.450;15.496;2022-08-01T01:58:35;99453.72;;;17.70;100.00
25722;BME280;13578;53.450;15.496;2022-08-01T02:01:38;99447.28;;;17.70;100.00
25722;BME280;13578;53.450;15.496;2022-08-01T02:04:42;99442.72;;;17.62;100.00
25722;BME280;13578;53.450;15.496;2022-08-01T02:07:44;99436.41;;;17.53;100.00
25722;BME280;13578;53.450;15.496;2022-08-01T02:10:46;99448.28;;;17.47;100.00
25722;BME280;13578;53.450;15.496;2022-08-01T02:14:07;99446.34;;;17.48;100.00
25722;BME280;13578;53.450;15.496;2022-08-01T02:17:11;99455.16;;;17.51;100.00
25722;BME280;13578;53.450;15.496;2022-08-01T02:20:13;99451.53;;;17.51;100.00
25722;BME280;13578;53.450;15.496;2022-08-01T02:23:13;99455.06;;;17.44;100.00
25722;BME280;13578;53.450;15.496;2022-08-01T02:26:17;99446.94;;;17.43;100.00
25722;BME280;13578;53.450;15.496;2022-08-01T02:29:24;99449.34;;;17.46;100.00
25722;BME280;13578;53.450;15.496;2022-08-01T02:32:31;99441.50;;;17.50;100.00
25722;BME280;13578;53.450;15.496;2022-08-01T02:35:38;99440.63;;;17.49;100.00
25722;BME280;13578;53.450;15.496;2022-08-01T02:38:43;99429.25;;;17.44;100.00
25722;BME280;13578;53.450;15.496;2022-08-01T02:41:47;99423.72;;;17.29;100.00
25722;BME280;13578;53.450;15.496;2022-08-01T02:44:50;99429.84;;;17.24;100.00
25722;BME280;13578;53.450;15.496;2022-08-01T02:47:57;99419.09;;;17.21;100.00
25722;BME280;13578;53.450;15.496;2022-08-01T02:51:01;99408.97;;;17.28;100.00
25722;BME280;13578;53.450;15.496;2022-08-01T02:54:04;99408.91;;;17.22;100.00
25722;BME280;13578;53.450;15.496;2022-08-01T02:57:07;99410.31;;;17.18;100.00
25722;BME280;13578;53.450;15.496;2022-08-01T03:00:09;99409.06;;;17.20;100.00
25722;BME280;13578;53.450;15.496;2022-08-01T03:03:11;99399.97;;;17.26;100.00
25722;BME280;13578;53.450;15.496;2022-08-01T03:06:13;99400.56;;;17.22;100.00
25722;BME280;13578;53.450;15.496;2022-08-01T03:09:15;99403.53;;;17.35;100.00
25722;BME280;13578;53.450;15.496;2022-08-01T03:12:20;99407.06;;;17.44;100.00
25722;BME280;13578;53.450;15.496;2022-08-01T03:15:23;99412.78;;;17.27;100.00
25722;BME280;13578;53.450;15.496;2022-08-01T03:18:25;99402.28;;;17.38;100.00
25722;BME280;13578;53.450;15.496;2022-08-01T03:21:28;99402.75;;;17.26;100.00
25722;BME280;13578;53.450;15.496;2022-08-01T03:24:31;99408.97;;;17.28;100.00
25722;BME280;13578;53.450;15.496;2022-08-01T03:27:36;99415.38;;;17.14;100.00
25722;BME280;13578;53.450;15.496;2022-08-01T03:30:37;99406.78;;;17.09;100.00
25722;BME280;13578;53.450;15.496;2022-08-01T03:33:39;99409.16;;;17.12;100.00
25722;BME280;13578;53.450;15.496;2022-08-01T03:36:49;99413.28;;;17.16;100.00
25722;BME280;13578;53.450;15.496;2022-08-01T03:43:38;99404.09;;;17.30;100.00
25722;BME280;13578;53.450;15.496;2022-08-01T03:46:50;99411.38;;;17.32;100.00
25722;BME280;13578;53.450;15.496;2022-08-01T03:49:53;99415.97;;;17.24;100.00
25722;BME280;13578;53.450;15.496;2022-08-01T03:52:57;99412.44;;;17.30;100.00
25722;BME280;13578;53.450;15.496;2022-08-01T03:56:01;99405.63;;;17.33;100.00
25722;BME280;13578;53.450;15.496;2022-08-01T03:59:02;99400.28;;;17.32;100.00
25722;BME280;13578;53.450;15.496;2022-08-01T04:02:04;99407.06;;;17.29;100.00
25722;BME280;13578;53.450;15.496;2022-08-01T04:05:06;99412.31;;;17.24;100.00
25722;BME280;13578;53.450;15.496;2022-08-01T04:08:08;99417.69;;;17.25;100.00
25722;BME280;13578;53.450;15.496;2022-08-01T04:11:09;99415.16;;;17.45;100.00
25722;BME280;13578;53.450;15.496;2022-08-01T04:14:10;99415.00;;;17.32;100.00
25722;BME280;13578;53.450;15.496;2022-08-01T04:17:10;99419.28;;;17.35;100.00
25722;BME280;13578;53.450;15.496;2022-08-01T04:20:11;99425.63;;;17.43;100.00
25722;BME280;13578;53.450;15.496;2022-08-01T04:23:23;99417.66;;;17.40;100.00
25722;BME280;13578;53.450;15.496;2022-08-01T04:26:26;99416.31;;;17.51;100.00
25722;BME280;13578;53.450;15.496;2022-08-01T04:29:29;99418.53;;;17.56;100.00
25722;BME280;13578;53.450;15.496;2022-08-01T04:32:33;99421.66;;;17.68;100.00
25722;BME280;13578;53.450;15.496;2022-08-01T04:35:36;99420.88;;;17.59;100.00
25722;BME280;13578;53.450;15.496;2022-08-01T04:38:40;99427.00;;;17.69;100.00
25722;BME280;13578;53.450;15.496;2022-08-01T04:41:41;99423.19;;;17.55;100.00
25722;BME280;13578;53.450;15.496;2022-08-01T04:44:42;99420.72;;;17.60;100.00
25722;BME280;13578;53.450;15.496;2022-08-01T04:47:43;99423.97;;;17.64;100.00
25722;BME280;13578;53.450;15.496;2022-08-01T04:50:45;99426.63;;;17.72;100.00
25722;BME280;13578;53.450;15.496;2022-08-01T04:53:46;99423.34;;;17.84;100.00
25722;BME280;13578;53.450;15.496;2022-08-01T04:56:47;99427.84;;;17.85;100.00
25722;BME280;13578;53.450;15.496;2022-08-01T04:59:47;99418.53;;;17.92;100.00
25722;BME280;13578;53.450;15.496;2022-08-01T05:02:49;99430.09;;;18.11;100.00
25722;BME280;13578;53.450;15.496;2022-08-01T05:05:50;99435.34;;;18.21;100.00
25722;BME280;13578;53.450;15.496;2022-08-01T05:08:51;99426.41;;;18.04;100.00
25722;BME280;13578;53.450;15.496;2022-08-01T05:11:51;99430.78;;;18.13;100.00
25722;BME280;13578;53.450;15.496;2022-08-01T05:14:52;99425.34;;;18.27;100.00
25722;BME280;13578;53.450;15.496;2022-08-01T05:17:52;99428.47;;;18.38;100.00
25722;BME280;13578;53.450;15.496;2022-08-01T05:20:53;99421.06;;;18.46;100.00
25722;BME280;13578;53.450;15.496;2022-08-01T05:23:54;99421.38;;;18.57;100.00
25722;BME280;13578;53.450;15.496;2022-08-01T05:26:55;99428.63;;;18.58;100.00
25722;BME280;13578;53.450;15.496;2022-08-01T05:29:56;99420.97;;;18.61;100.00
25722;BME280;13578;53.450;15.496;2022-08-01T05:32:56;99420.59;;;18.64;100.00
25722;BME280;13578;53.450;15.496;2022-08-01T05:35:57;99425.34;;;18.70;100.00
25722;BME280;13578;53.450;15.496;2022-08-01T05:38:58;99415.28;;;18.69;100.00
25722;BME280;13578;53.450;15.496;2022-08-01T05:41:58;99417.78;;;18.85;100.00
25722;BME280;13578;53.450;15.496;2022-08-01T05:44:59;99422.13;;;18.95;100.00
25722;BME280;13578;53.450;15.496;2022-08-01T05:48:00;99416.72;;;18.86;100.00
25722;BME280;13578;53.450;15.496;2022-08-01T05:51:00;99427.91;;;18.93;100.00
25722;BME280;13578;53.450;15.496;2022-08-01T05:54:01;99428.34;;;18.97;100.00
25722;BME280;13578;53.450;15.496;2022-08-01T05:57:03;99428.19;;;19.05;100.00
25722;BME280;13578;53.450;15.496;2022-08-01T06:00:04;99436.31;;;19.00;100.00
25722;BME280;13578;53.450;15.496;2022-08-01T06:03:05;99431.38;;;19.02;100.00
25722;BME280;13578;53.450;15.496;2022-08-01T06:06:06;99438.06;;;19.08;100.00
25722;BME280;13578;53.450;15.496;2022-08-01T06:09:07;99429.94;;;19.13;100.00
25722;BME280;13578;53.450;15.496;2022-08-01T06:12:07;99434.66;;;19.12;100.00
25722;BME280;13578;53.450;15.496;2022-08-01T06:15:08;99428.19;;;19.05;100.00
25722;BME280;13578;53.450;15.496;2022-08-01T06:18:09;99433.00;;;19.18;100.00
25722;BME280;13578;53.450;15.496;2022-08-01T06:21:10;99436.63;;;19.18;100.00
25722;BME280;13578;53.450;15.496;2022-08-01T06:24:11;99442.53;;;19.37;100.00
25722;BME280;13578;53.450;15.496;2022-08-01T06:27:11;99440.22;;;19.41;100.00
25722;BME280;13578;53.450;15.496;2022-08-01T06:30:12;99440.66;;;19.44;100.00
25722;BME280;13578;53.450;15.496;2022-08-01T06:33:13;99440.00;;;19.42;100.00
25722;BME280;13578;53.450;15.496;2022-08-01T06:36:14;99446.47;;;19.49;100.00
25722;BME280;13578;53.450;15.496;2022-08-01T06:39:14;99445.22;;;19.59;100.00
25722;BME280;13578;53.450;15.496;2022-08-01T06:42:15;99440.69;;;19.51;100.00
25722;BME280;13578;53.450;15.496;2022-08-01T06:45:16;99460.00;;;19.59;100.00
25722;BME280;13578;53.450;15.496;2022-08-01T06:48:17;99460.88;;;19.60;100.00
25722;BME280;13578;53.450;15.496;2022-08-01T06:51:17;99456.38;;;19.65;100.00
25722;BME280;13578;53.450;15.496;2022-08-01T06:54:20;99458.94;;;19.60;100.00
25722;BME280;13578;53.450;15.496;2022-08-01T06:57:21;99461.94;;;19.59;100.00
25722;BME280;13578;53.450;15.496;2022-08-01T07:00:23;99463.00;;;19.58;100.00
25722;BME280;13578;53.450;15.496;2022-08-01T07:03:25;99464.28;;;19.62;100.00
25722;BME280;13578;53.450;15.496;2022-08-01T07:06:27;99455.53;;;19.65;100.00
25722;BME280;13578;53.450;15.496;2022-08-01T07:09:28;99468.84;;;19.70;100.00
25722;BME280;13578;53.450;15.496;2022-08-01T07:12:28;99469.25;;;19.66;100.00
25722;BME280;13578;53.450;15.496;2022-08-01T07:15:29;99458.38;;;19.78;100.00
25722;BME280;13578;53.450;15.496;2022-08-01T07:18:30;99454.66;;;19.64;100.00
25722;BME280;13578;53.450;15.496;2022-08-01T07:21:30;99469.28;;;19.73;100.00
25722;BME280;13578;53.450;15.496;2022-08-01T07:24:31;99463.28;;;19.70;100.00
25722;BME280;13578;53.450;15.496;2022-08-01T07:27:32;99473.22;;;19.86;100.00
25722;BME280;13578;53.450;15.496;2022-08-01T07:30:33;99473.88;;;19.94;100.00
25722;BME280;13578;53.450;15.496;2022-08-01T07:33:34;99465.41;;;20.09;100.00
25722;BME280;13578;53.450;15.496;2022-08-01T07:36:34;99469.91;;;20.10;100.00
25722;BME280;13578;53.450;15.496;2022-08-01T07:39:35;99473.75;;;20.16;100.00
25722;BME280;13578;53.450;15.496;2022-08-01T07:42:35;99472.94;;;20.29;100.00
25722;BME280;13578;53.450;15.496;2022-08-01T07:45:36;99468.69;;;20.33;100.00
25722;BME280;13578;53.450;15.496;2022-08-01T07:48:37;99473.19;;;20.41;100.00
25722;BME280;13578;53.450;15.496;2022-08-01T07:51:37;99479.00;;;20.46;100.00
25722;BME280;13578;53.450;15.496;2022-08-01T07:54:38;99476.03;;;20.61;100.00
25722;BME280;13578;53.450;15.496;2022-08-01T07:57:39;99474.75;;;20.70;100.00
25722;BME280;13578;53.450;15.496;2022-08-01T08:00:40;99479.06;;;20.79;100.00
25722;BME280;13578;53.450;15.496;2022-08-01T08:03:41;99479.06;;;20.79;100.00
25722;BME280;13578;53.450;15.496;2022-08-01T08:06:41;99482.97;;;21.05;100.00
25722;BME280;13578;53.450;15.496;2022-08-01T08:09:43;99479.50;;;21.17;100.00
25722;BME280;13578;53.450;15.496;2022-08-01T08:12:44;99480.78;;;21.34;100.00
25722;BME280;13578;53.450;15.496;2022-08-01T08:15:46;99493.00;;;21.53;100.00
25722;BME280;13578;53.450;15.496;2022-08-01T08:18:47;99491.91;;;21.68;100.00
25722;BME280;13578;53.450;15.496;2022-08-01T08:21:48;99489.97;;;21.68;100.00
25722;BME280;13578;53.450;15.496;2022-08-01T08:24:48;99494.19;;;21.91;100.00
25722;BME280;13578;53.450;15.496;2022-08-01T08:27:49;99491.69;;;21.56;100.00
25722;BME280;13578;53.450;15.496;2022-08-01T08:30:50;99489.72;;;21.83;100.00
25722;BME280;13578;53.450;15.496;2022-08-01T08:33:50;99495.50;;;21.95;100.00
25722;BME280;13578;53.450;15.496;2022-08-01T08:36:51;99496.97;;;21.98;100.00
25722;BME280;13578;53.450;15.496;2022-08-01T08:39:52;99495.69;;;22.00;100.00
25722;BME280;13578;53.450;15.496;2022-08-01T08:42:53;99497.97;;;22.17;100.00
25722;BME280;13578;53.450;15.496;2022-08-01T08:45:54;99498.53;;;22.32;100.00
25722;BME280;13578;53.450;15.496;2022-08-01T08:48:56;99500.19;;;22.86;100.00
25722;BME280;13578;53.450;15.496;2022-08-01T08:52:01;99502.59;;;23.07;100.00
25722;BME280;13578;53.450;15.496;2022-08-01T08:55:02;99510.94;;;23.14;100.00
25722;BME280;13578;53.450;15.496;2022-08-01T08:58:04;99505.44;;;23.00;100.00
25722;BME280;13578;53.450;15.496;2022-08-01T09:01:06;99504.78;;;23.30;100.00
25722;BME280;13578;53.450;15.496;2022-08-01T09:04:09;99522.72;;;23.48;100.00
25722;BME280;13578;53.450;15.496;2022-08-01T09:07:10;99517.13;;;23.48;100.00
25722;BME280;13578;53.450;15.496;2022-08-01T09:10:11;99515.44;;;23.66;91.34
25722;BME280;13578;53.450;15.496;2022-08-01T09:13:14;99524.84;;;23.71;83.06
25722;BME280;13578;53.450;15.496;2022-08-01T09:16:16;99519.19;;;23.78;83.38
25722;BME280;13578;53.450;15.496;2022-08-01T09:19:20;99515.69;;;23.39;86.24
25722;BME280;13578;53.450;15.496;2022-08-01T09:22:22;99523.78;;;23.72;85.20
25722;BME280;13578;53.450;15.496;2022-08-01T09:25:24;99517.78;;;23.69;81.14
25722;BME280;13578;53.450;15.496;2022-08-01T09:28:29;99515.47;;;23.84;79.47
25722;BME280;13578;53.450;15.496;2022-08-01T09:31:42;99521.00;;;24.28;82.83
25722;BME280;13578;53.450;15.496;2022-08-01T09:34:43;99529.50;;;24.21;78.19
25722;BME280;13578;53.450;15.496;2022-08-01T09:37:46;99524.59;;;24.17;82.72
25722;BME280;13578;53.450;15.496;2022-08-01T09:40:53;99528.25;;;24.36;83.17
25722;BME280;13578;53.450;15.496;2022-08-01T09:43:54;99532.47;;;24.76;87.28
25722;BME280;13578;53.450;15.496;2022-08-01T09:46:55;99526.56;;;24.96;86.57
25722;BME280;13578;53.450;15.496;2022-08-01T09:49:57;99533.66;;;25.10;83.84
25722;BME280;13578;53.450;15.496;2022-08-01T09:52:57;99535.75;;;25.27;83.79
25722;BME280;13578;53.450;15.496;2022-08-01T09:56:16;99544.06;;;25.21;85.32
25722;BME280;13578;53.450;15.496;2022-08-01T09:59:17;99537.06;;;25.12;84.56
25722;BME280;13578;53.450;15.496;2022-08-01T10:05:34;99542.25;;;24.85;87.46
25722;BME280;13578;53.450;15.496;2022-08-01T10:08:46;99544.41;;;25.13;91.72
25722;BME280;13578;53.450;15.496;2022-08-01T10:11:47;99546.06;;;25.68;83.55
25722;BME280;13578;53.450;15.496;2022-08-01T10:14:48;99543.53;;;25.91;82.08
25722;BME280;13578;53.450;15.496;2022-08-01T10:18:01;99549.88;;;25.98;80.07
25722;BME280;13578;53.450;15.496;2022-08-01T10:21:03;99540.09;;;25.65;78.70
25722;BME280;13578;53.450;15.496;2022-08-01T10:24:05;99548.28;;;25.43;81.29
25722;BME280;13578;53.450;15.496;2022-08-01T10:27:09;99547.03;;;25.39;80.55
25722;BME280;13578;53.450;15.496;2022-08-01T10:30:10;99557.25;;;25.21;80.73
25722;BME280;13578;53.450;15.496;2022-08-01T10:33:11;99556.00;;;25.17;82.69
25722;BME280;13578;53.450;15.496;2022-08-01T10:36:12;99557.44;;;25.38;84.21
25722;BME280;13578;53.450;15.496;2022-08-01T10:39:13;99554.50;;;25.57;78.30
25722;BME280;13578;53.450;15.496;2022-08-01T10:42:14;99549.63;;;25.64;74.72
25722;BME280;13578;53.450;15.496;2022-08-01T10:45:15;99549.41;;;25.65;75.45
25722;BME280;13578;53.450;15.496;2022-08-01T10:48:33;99544.00;;;26.11;75.12
25722;BME280;13578;53.450;15.496;2022-08-01T10:51:39;99544.50;;;25.84;72.25
25722;BME280;13578;53.450;15.496;2022-08-01T10:54:40;99548.03;;;25.80;72.41
25722;BME280;13578;53.450;15.496;2022-08-01T10:57:45;99548.63;;;25.82;75.07
25722;BME280;13578;53.450;15.496;2022-08-01T11:00:46;99538.34;;;26.23;71.79
25722;BME280;13578;53.450;15.496;2022-08-01T11:04:08;99557.69;;;26.20;71.32
25722;BME280;13578;53.450;15.496;2022-08-01T11:07:18;99554.44;;;26.40;74.15
25722;BME280;13578;53.450;15.496;2022-08-01T11:10:42;99554.03;;;26.48;71.62
25722;BME280;13578;53.450;15.496;2022-08-01T11:17:33;99564.13;;;26.73;69.76
25722;BME280;13578;53.450;15.496;2022-08-01T11:20:35;99554.97;;;26.01;74.14
25722;BME280;13578;53.450;15.496;2022-08-01T11:23:47;99554.41;;;25.63;80.83
25722;BME280;13578;53.450;15.496;2022-08-01T11:27:23;99556.72;;;25.43;80.93
25722;BME280;13578;53.450;15.496;2022-08-01T11:30:25;99560.22;;;25.38;84.30
25722;BME280;13578;53.450;15.496;2022-08-01T11:36:41;99567.31;;;26.00;85.44
25722;BME280;13578;53.450;15.496;2022-08-01T11:39:42;99567.47;;;25.81;80.38
25722;BME280;13578;53.450;15.496;2022-08-01T11:42:43;99568.44;;;25.75;85.34
25722;BME280;13578;53.450;15.496;2022-08-01T11:45:55;99566.72;;;25.74;83.67
25722;BME280;13578;53.450;15.496;2022-08-01T11:52:32;99575.06;;;25.69;85.11
25722;BME280;13578;53.450;15.496;2022-08-01T11:55:35;99581.38;;;25.52;83.48
25722;BME280;13578;53.450;15.496;2022-08-01T11:58:36;99589.59;;;25.24;85.47
25722;BME280;13578;53.450;15.496;2022-08-01T12:01:36;99586.97;;;24.98;87.33
25722;BME280;13578;53.450;15.496;2022-08-01T12:04:48;99586.28;;;24.84;85.48
25722;BME280;13578;53.450;15.496;2022-08-01T12:07:52;99581.19;;;24.93;89.09
25722;BME280;13578;53.450;15.496;2022-08-01T12:10:53;99585.81;;;24.87;87.11
25722;BME280;13578;53.450;15.496;2022-08-01T12:13:54;99588.47;;;24.82;87.46
25722;BME280;13578;53.450;15.496;2022-08-01T12:16:55;99587.94;;;25.04;88.07
25722;BME280;13578;53.450;15.496;2022-08-01T12:19:56;99586.38;;;25.08;89.93
25722;BME280;13578;53.450;15.496;2022-08-01T12:23:03;99590.81;;;25.28;91.61
25722;BME280;13578;53.450;15.496;2022-08-01T12:26:05;99597.06;;;25.30;90.50
25722;BME280;13578;53.450;15.496;2022-08-01T12:29:07;99596.44;;;25.28;90.27
25722;BME280;13578;53.450;15.496;2022-08-01T12:35:28;99601.47;;;25.26;90.49
25722;BME280;13578;53.450;15.496;2022-08-01T12:38:30;99610.75;;;24.96;85.84
25722;BME280;13578;53.450;15.496;2022-08-01T12:41:35;99612.63;;;24.83;93.58
25722;BME280;13578;53.450;15.496;2022-08-01T12:44:37;99608.84;;;24.78;92.13
25722;BME280;13578;53.450;15.496;2022-08-01T12:47:39;99602.75;;;24.81;93.56
25722;BME280;13578;53.450;15.496;2022-08-01T12:50:43;99607.88;;;24.65;90.66
25722;BME280;13578;53.450;15.496;2022-08-01T12:53:45;99606.41;;;24.63;95.00
25722;BME280;13578;53.450;15.496;2022-08-01T12:56:45;99607.56;;;24.92;96.48
25722;BME280;13578;53.450;15.496;2022-08-01T12:59:46;99611.97;;;24.69;92.71
25722;BME280;13578;53.450;15.496;2022-08-01T13:02:49;99614.81;;;24.63;95.38
25722;BME280;13578;53.450;15.496;2022-08-01T13:08:52;99603.31;;;24.34;100.00
25722;BME280;13578;53.450;15.496;2022-08-01T13:11:52;99611.41;;;24.42;98.70
25722;BME280;13578;53.450;15.496;2022-08-01T13:14:56;99603.38;;;24.46;100.00
25722;BME280;13578;53.450;15.496;2022-08-01T13:17:58;99604.09;;;24.41;99.69
25722;BME280;13578;53.450;15.496;2022-08-01T13:21:12;99612.81;;;24.14;100.00
25722;BME280;13578;53.450;15.496;2022-08-01T13:24:13;99613.75;;;24.26;100.00
25722;BME280;13578;53.450;15.496;2022-08-01T13:27:20;99611.56;;;24.29;100.00
25722;BME280;13578;53.450;15.496;2022-08-01T13:30:24;99619.69;;;24.37;100.00
25722;BME280;13578;53.450;15.496;2022-08-01T13:33:26;99624.03;;;24.70;100.00
25722;BME280;13578;53.450;15.496;2022-08-01T13:36:27;99613.34;;;24.41;98.90
25722;BME280;13578;53.450;15.496;2022-08-01T13:39:29;99621.22;;;24.51;100.00
25722;BME280;13578;53.450;15.496;2022-08-01T13:42:42;99625.91;;;24.20;99.71
25722;BME280;13578;53.450;15.496;2022-08-01T13:45:43;99623.09;;;24.20;100.00
25722;BME280;13578;53.450;15.496;2022-08-01T13:48:43;99622.63;;;24.42;100.00
25722;BME280;13578;53.450;15.496;2022-08-01T13:51:44;99630.34;;;24.47;98.01
25722;BME280;13578;53.450;15.496;2022-08-01T13:54:46;99635.00;;;24.71;100.00
25722;BME280;13578;53.450;15.496;2022-08-01T13:57:47;99634.31;;;24.76;96.89
25722;BME280;13578;53.450;15.496;2022-08-01T14:00:47;99628.06;;;24.55;92.29
25722;BME280;13578;53.450;15.496;2022-08-01T14:03:48;99635.00;;;24.34;95.16
25722;BME280;13578;53.450;15.496;2022-08-01T14:06:49;99632.53;;;24.26;93.24
25722;BME280;13578;53.450;15.496;2022-08-01T14:09:50;99636.09;;;24.52;91.49
25722;BME280;13578;53.450;15.496;2022-08-01T14:12:50;99639.44;;;24.42;90.70
25722;BME280;13578;53.450;15.496;2022-08-01T14:15:51;99650.13;;;24.52;92.87
25722;BME280;13578;53.450;15.496;2022-08-01T14:18:52;99638.69;;;24.72;94.24
25722;BME280;13578;53.450;15.496;2022-08-01T14:21:53;99646.59;;;24.94;92.07
25722;BME280;13578;53.450;15.496;2022-08-01T14:24:53;99643.03;;;24.86;96.08
25722;BME280;13578;53.450;15.496;2022-08-01T14:27:54;99655.47;;;24.90;95.34
25722;BME280;13578;53.450;15.496;2022-08-01T14:30:56;99646.59;;;24.94;95.21
25722;BME280;13578;53.450;15.496;2022-08-01T14:33:57;99648.44;;;25.18;96.54
25722;BME280;13578;53.450;15.496;2022-08-01T14:36:57;99652.22;;;25.24;90.36
25722;BME280;13578;53.450;15.496;2022-08-01T14:39:59;99657.34;;;25.58;96.34
25722;BME280;13578;53.450;15.496;2022-08-01T14:43:04;99662.47;;;25.18;91.74
25722;BME280;13578;53.450;15.496;2022-08-01T14:46:04;99657.94;;;25.17;92.22
25722;BME280;13578;53.450;15.496;2022-08-01T14:49:05;99671.22;;;25.10;94.89
25722;BME280;13578;53.450;15.496;2022-08-01T14:52:06;99658.91;;;24.93;95.60
25722;BME280;13578;53.450;15.496;2022-08-01T14:55:08;99655.81;;;24.64;99.81
25722;BME280;13578;53.450;15.496;2022-08-01T14:58:09;99667.84;;;24.08;100.00
25722;BME280;13578;53.450;15.496;2022-08-01T15:01:09;99670.75;;;24.20;100.00
25722;BME280;13578;53.450;15.496;2022-08-01T15:04:10;99675.88;;;24.23;100.00
25722;BME280;13578;53.450;15.496;2022-08-01T15:07:11;99681.41;;;24.30;100.00
25722;BME280;13578;53.450;15.496;2022-08-01T15:10:12;99685.41;;;24.22;100.00
25722;BME280;13578;53.450;15.496;2022-08-01T15:13:13;99678.13;;;24.15;100.00
25722;BME280;13578;53.450;15.496;2022-08-01T15:16:13;99681.31;;;24.00;100.00
25722;BME280;13578;53.450;15.496;2022-08-01T15:19:14;99698.81;;;23.95;100.00
25722;BME280;13578;53.450;15.496;2022-08-01T15:22:15;99694.59;;;23.79;100.00
25722;BME280;13578;53.450;15.496;2022-08-01T15:25:15;99692.91;;;23.71;100.00
25722;BME280;13578;53.450;15.496;2022-08-01T15:28:16;99694.06;;;23.63;100.00
25722;BME280;13578;53.450;15.496;2022-08-01T15:31:17;99702.75;;;23.55;100.00
25722;BME280;13578;53.450;15.496;2022-08-01T15:34:17;99698.63;;;23.58;100.00
25722;BME280;13578;53.450;15.496;2022-08-01T15:37:18;99692.44;;;23.49;100.00
25722;BME280;13578;53.450;15.496;2022-08-01T15:40:19;99691.81;;;23.47;100.00
25722;BME280;13578;53.450;15.496;2022-08-01T15:43:19;99701.03;;;23.54;100.00
25722;BME280;13578;53.450;15.496;2022-08-01T15:46:20;99699.31;;;23.53;100.00
25722;BME280;13578;53.450;15.496;2022-08-01T15:49:21;99698.38;;;23.59;100.00
25722;BME280;13578;53.450;15.496;2022-08-01T15:52:22;99699.75;;;23.50;100.00
25722;BME280;13578;53.450;15.496;2022-08-01T15:55:23;99701.72;;;23.43;100.00
25722;BME280;13578;53.450;15.496;2022-08-01T15:58:23;99711.00;;;23.43;100.00
25722;BME280;13578;53.450;15.496;2022-08-01T16:01:24;99700.91;;;23.36;100.00
25722;BME280;13578;53.450;15.496;2022-08-01T16:04:27;99705.50;;;23.30;100.00
25722;BME280;13578;53.450;15.496;2022-08-01T16:07:28;99702.09;;;23.14;100.00
25722;BME280;13578;53.450;15.496;2022-08-01T16:10:29;99696.06;;;23.18;100.00
25722;BME280;13578;53.450;15.496;2022-08-01T16:13:30;99698.25;;;23.09;100.00
25722;BME280;13578;53.450;15.496;2022-08-01T16:16:30;99706.22;;;23.05;100.00
25722;BME280;13578;53.450;15.496;2022-08-01T16:19:31;99702.22;;;22.88;100.00
25722;BME280;13578;53.450;15.496;2022-08-01T16:22:32;99710.16;;;22.91;100.00